Rio Cuarto, Argentina

7:39 PM ART on December 04, 2016 (GMT -0300)
Area De Material | | Change Station

Elev 1381 ft 33.12 °S, 64.23 °W | Updated 39 minutes ago

Scattered Clouds
Scattered Clouds
88 °F
Feels Like 86 °F
N
34
Wind Variable Wind from North
Gusts 46 mph

Today
High -- | Low -- °F
--% Chance of Precip.
Yesterday
High -- | Low -- °F
Precip. -- in
Pressure 29.53 in
Visibility 6.2 miles
Clouds Scattered Clouds 7000 ft
Heat Index 86 °F
Dew Point 54 °F
Humidity 31%
Rainfall 0.00 in
Snow Depth Not available.
6:00 AM 8:14 PM
Waxing Crescent, 26% visible
METAR SAOC 042200Z 36030G40KT 9999 SCT070 31/12 Q1000
Pressure 29.53 in
Visibility 6.2 miles
Clouds Scattered Clouds 7000 ft
Heat Index 86 °F
Dew Point 54 °F
Humidity 31%
Rainfall 0.00 in
Snow Depth Not available.
6:00 AM 8:14 PM
Waxing Crescent, 26% visible
METAR SAOC 042200Z 36030G40KT 9999 SCT070 31/12 Q1000

10-Day Weather Forecast

Almanac

Astronomy

Dec. 04, 2016 Rise Set
Actual Time
Civil Twilight
Nautical Twilight
Astronomical Twilight
Moon
Length of Visible Light
Length of Day
Tomorrow will be .
, % of the Moon is Illuminated

Today's Extremes

Country Highs Country Lows

Community

WunderPhotos

Upload Photos

1,955,685 photos uploaded!

WunderBlog® & News

Nearby

Air Quality

  Air Quality AQ Index Pollutant
Not available.

Snow Depth

Station Depth Elevation

Earthquake Activity

City Distance Mag. Time & Date
Minimum magnitude displayed is 2.5.

Coastal Water Temperatures

Place Temperature

Stations

Nearby Weather Stations

Station Location Temp. Windchill Dew Point Humidity Wind Precip. Elev Updated Type